Time;durP1;ratioP1;P1;durP2;ratioP2;P2;SDS_P1;SDS_P2;PMS_P1;PMS_P2;Temp;Humidity;BMP_temperature;BMP_pressure;BME280_temperature;BME280_humidity;BME280_pressure;Samples;Min_cycle;Max_cycle;Signal;HPM_P1;HPM_P2
2022/05/08 00:02:24;;;;;;;11.63;2.60;;;;;;;10.58;100.00;102511.19;5065010;28;20068;-85
2022/05/08 00:04:53;;;;;;;20.23;2.78;;;;;;;10.87;100.00;102516.16;5063203;28;20045;-84
2022/05/08 00:07:22;;;;;;;19.52;3.10;;;;;;;10.89;100.00;102529.22;5061997;28;20059;-84
2022/05/08 00:09:51;;;;;;;18.48;4.10;;;;;;;10.40;100.00;102507.84;5058283;28;20048;-84
2022/05/08 00:12:18;;;;;;;13.90;3.45;;;;;;;10.46;100.00;102517.38;5072730;28;20052;-85
2022/05/08 00:14:45;;;;;;;10.95;2.30;;;;;;;10.68;100.00;102525.94;5073515;28;20054;-85
2022/05/08 00:17:13;;;;;;;18.33;3.03;;;;;;;10.39;100.00;102508.75;5072684;28;20139;-83
2022/05/08 00:19:43;;;;;;;16.17;3.85;;;;;;;10.66;100.00;102518.97;5073592;28;20072;-85
2022/05/08 00:22:14;;;;;;;14.73;3.40;;;;;;;10.46;100.00;102520.00;5072077;28;20079;-84
2022/05/08 00:25:00;;;;;;;14.05;3.80;;;;;;;10.63;100.00;102515.50;5072470;28;20098;-85
2022/05/08 00:27:27;;;;;;;15.40;2.75;;;;;;;10.56;100.00;102494.63;5065793;28;20055;-84
2022/05/08 00:29:54;;;;;;;17.15;3.80;;;;;;;10.68;100.00;102527.66;5053017;28;20088;-84
2022/05/08 00:32:21;;;;;;;16.80;3.65;;;;;;;10.21;100.00;102495.75;5067577;28;20060;-84
2022/05/08 00:34:48;;;;;;;15.63;3.65;;;;;;;10.20;100.00;102491.41;5071547;28;20044;-84
2022/05/08 00:37:15;;;;;;;12.05;3.35;;;;;;;10.03;100.00;102458.38;5071273;28;20409;-84
2022/05/08 00:39:43;;;;;;;15.93;3.10;;;;;;;10.12;100.00;102509.78;5071544;28;20056;-84
2022/05/08 00:42:10;;;;;;;14.48;3.70;;;;;;;10.40;100.00;102483.41;5072097;28;20059;-84
2022/05/08 00:44:37;;;;;;;17.33;3.67;;;;;;;10.34;100.00;102502.66;5071174;28;20047;-85
2022/05/08 00:47:04;;;;;;;15.20;3.70;;;;;;;10.29;100.00;102488.72;5071139;28;20048;-85
2022/05/08 00:49:33;;;;;;;13.40;2.67;;;;;;;9.99;100.00;102477.59;5071335;28;20410;-84
2022/05/08 00:52:00;;;;;;;18.70;3.25;;;;;;;10.47;100.00;102506.03;5071858;28;20493;-84
2022/05/08 00:54:27;;;;;;;16.23;3.40;;;;;;;10.38;100.00;102483.44;5072450;28;20044;-84
2022/05/08 00:56:56;;;;;;;17.33;3.22;;;;;;;10.50;100.00;102492.94;5071590;28;20048;-84
2022/05/08 00:59:24;;;;;;;16.17;3.42;;;;;;;10.71;100.00;102496.22;5072439;28;20068;-84
2022/05/08 01:01:51;;;;;;;18.77;3.75;;;;;;;10.17;100.00;102460.03;5070820;28;20502;-83
2022/05/08 01:04:18;;;;;;;12.90;4.10;;;;;;;10.23;100.00;102463.47;5070526;28;20055;-84
2022/05/08 01:06:45;;;;;;;12.48;3.03;;;;;;;10.40;100.00;102499.13;5070825;28;20123;-84
2022/05/08 01:09:12;;;;;;;15.93;2.55;;;;;;;10.47;100.00;102476.38;5054872;28;20057;-84
2022/05/08 01:11:39;;;;;;;10.40;2.88;;;;;;;10.59;100.00;102503.31;5061621;28;20045;-84
2022/05/08 01:14:05;;;;;;;15.60;3.03;;;;;;;10.20;100.00;102452.16;5071097;28;20055;-84
2022/05/08 01:16:32;;;;;;;17.35;3.92;;;;;;;10.19;100.00;102482.66;5070400;28;20055;-84
2022/05/08 01:18:59;;;;;;;11.15;2.97;;;;;;;10.02;100.00;102464.50;5071067;28;20501;-84
2022/05/08 01:21:42;;;;;;;15.38;3.78;;;;;;;10.50;100.00;102498.16;5069864;28;20044;-84
2022/05/08 01:24:11;;;;;;;17.92;3.50;;;;;;;10.25;100.00;102486.97;5071206;28;20044;-84
2022/05/08 01:26:37;;;;;;;17.13;3.70;;;;;;;10.34;100.00;102475.59;5069367;28;20056;-84
2022/05/08 01:29:04;;;;;;;17.80;3.33;;;;;;;10.42;100.00;102452.84;5070405;28;20052;-83
2022/05/08 01:31:31;;;;;;;18.08;3.08;;;;;;;10.58;100.00;102471.91;5070083;28;20055;-84
2022/05/08 01:33:58;;;;;;;19.67;3.03;;;;;;;10.13;100.00;102464.41;5070436;28;20054;-84
2022/05/08 01:36:25;;;;;;;23.70;3.35;;;;;;;10.24;100.00;102487.88;5070863;28;20136;-84
2022/05/08 01:38:53;;;;;;;14.68;5.03;;;;;;;10.25;100.00;102460.81;5071481;28;20076;-84
2022/05/08 01:41:19;;;;;;;17.45;3.30;;;;;;;10.28;100.00;102471.25;5071531;28;20045;-83
2022/05/08 01:43:46;;;;;;;15.60;2.53;;;;;;;10.31;100.00;102493.94;5070464;28;20051;-84
2022/05/08 01:46:13;;;;;;;18.73;4.65;;;;;;;10.16;100.00;102481.81;5070433;28;20055;-84
2022/05/08 01:48:40;;;;;;;20.33;4.82;;;;;;;10.15;100.00;102486.19;5071788;28;20052;-84
2022/05/08 01:51:07;;;;;;;18.05;3.42;;;;;;;9.92;100.00;102456.72;5070292;28;20403;-84
2022/05/08 01:53:35;;;;;;;16.75;4.28;;;;;;;10.14;100.00;102492.31;5071628;28;20045;-84
2022/05/08 01:56:05;;;;;;;18.05;4.30;;;;;;;10.11;100.00;102486.22;5069934;28;20059;-84
2022/05/08 01:58:32;;;;;;;22.02;3.95;;;;;;;10.05;100.00;102461.84;5070746;28;20628;-84
2022/05/08 02:01:01;;;;;;;11.60;2.30;;;;;;;10.37;100.00;102473.81;5071540;28;20044;-84
2022/05/08 02:03:28;;;;;;;22.52;3.75;;;;;;;10.37;100.00;102462.50;5054761;28;20056;-84
2022/05/08 02:05:55;;;;;;;13.90;3.45;;;;;;;9.99;100.00;102446.19;5049694;28;20045;-84
2022/05/08 02:08:22;;;;;;;15.32;4.22;;;;;;;10.36;100.00;102455.53;5050735;28;20055;-84
2022/05/08 02:10:49;;;;;;;12.38;3.42;;;;;;;10.28;100.00;102463.41;5069460;28;20048;-84
2022/05/08 02:13:16;;;;;;;24.08;4.35;;;;;;;10.05;100.00;102429.56;5071956;28;20044;-84
2022/05/08 02:15:43;;;;;;;12.55;2.80;;;;;;;10.11;100.00;102432.16;5069879;28;20055;-84
2022/05/08 02:18:10;;;;;;;15.13;2.92;;;;;;;10.37;100.00;102468.59;5070464;28;20083;-82
2022/05/08 02:20:39;;;;;;;18.42;3.33;;;;;;;10.03;100.00;102449.66;5071088;28;20482;-82
2022/05/08 02:23:07;;;;;;;11.50;3.00;;;;;;;10.10;100.00;102434.78;5071370;28;20049;-82
2022/05/08 02:25:33;;;;;;;20.25;3.08;;;;;;;10.17;100.00;102449.56;5070195;28;20044;-83
2022/05/08 02:28:00;;;;;;;10.65;2.92;;;;;;;10.16;100.00;102432.09;5072086;28;20132;-82
2022/05/08 02:30:27;;;;;;;20.77;3.97;;;;;;;10.10;100.00;102440.00;5072154;28;20048;-84
2022/05/08 02:32:54;;;;;;;14.40;3.35;;;;;;;10.19;100.00;102442.53;5075662;28;20044;-82
2022/05/08 02:35:22;;;;;;;13.07;2.58;;;;;;;9.87;100.00;102414.91;5074570;28;20450;-82
2022/05/08 02:37:52;;;;;;;17.67;4.50;;;;;;;9.78;100.00;102423.69;5075693;28;20094;-81
2022/05/08 02:40:22;;;;;;;11.85;4.47;;;;;;;10.10;100.00;102433.03;5075232;28;20052;-83
2022/05/08 02:42:50;;;;;;;19.15;3.85;;;;;;;10.39;100.00;102453.75;5064259;28;20056;-84
2022/05/08 02:45:17;;;;;;;25.90;4.22;;;;;;;10.11;100.00;102463.56;5053765;28;20055;-84
2022/05/08 02:47:44;;;;;;;14.57;3.65;;;;;;;10.19;100.00;102464.34;5053181;28;20630;-84
2022/05/08 02:50:11;;;;;;;25.77;4.97;;;;;;;10.18;100.00;102451.28;5053156;28;20688;-84
2022/05/08 02:52:39;;;;;;;15.80;4.32;;;;;;;10.18;100.00;102454.78;5072958;28;20289;-84
2022/05/08 03:00:40;;;;;;;13.07;3.08;;;;;;;10.09;100.00;102423.41;5074024;28;20060;-84
2022/05/08 03:03:08;;;;;;;19.55;3.05;;;;;;;10.40;100.00;102438.91;5073495;28;20052;-84
2022/05/08 03:05:36;;;;;;;14.65;3.38;;;;;;;10.11;100.00;102420.78;5073010;28;20128;-84
2022/05/08 03:08:05;;;;;;;15.13;3.88;;;;;;;10.02;100.00;102435.72;5073276;28;20044;-84
2022/05/08 03:13:17;;;;;;;16.33;3.42;;;;;;;11.14;100.00;102443.31;5061973;28;20096;-83
2022/05/08 03:15:44;;;;;;;11.60;2.55;;;;;;;11.16;100.00;102423.19;5054806;28;20041;-84
2022/05/08 03:18:11;;;;;;;20.95;5.43;;;;;;;10.45;100.00;102440.59;5054597;28;20049;-84
2022/05/08 03:20:40;;;;;;;17.80;4.88;;;;;;;9.91;100.00;102405.28;5056440;28;20056;-84
2022/05/08 03:23:07;;;;;;;11.13;2.85;;;;;;;10.13;100.00;102416.41;5072372;28;20044;-84
2022/05/08 03:25:34;;;;;;;17.52;3.67;;;;;;;10.19;100.00;102419.00;5072464;28;20040;-84
2022/05/08 03:28:01;;;;;;;16.27;3.53;;;;;;;10.13;100.00;102421.63;5074064;28;20487;-84
2022/05/08 03:30:28;;;;;;;12.45;2.97;;;;;;;10.11;100.00;102429.53;5072581;28;20502;-84
2022/05/08 03:32:58;;;;;;;18.75;3.60;;;;;;;9.99;100.00;102429.63;5074225;28;20044;-84
2022/05/08 03:35:25;;;;;;;13.15;3.70;;;;;;;10.10;100.00;102413.84;5072954;28;20740;-84
2022/05/08 03:37:52;;;;;;;13.07;3.42;;;;;;;9.80;100.00;102416.69;5065240;28;20049;-83
2022/05/08 03:40:19;;;;;;;15.57;3.17;;;;;;;9.98;100.00;102401.72;5051563;28;20049;-84
2022/05/08 03:42:46;;;;;;;12.40;3.05;;;;;;;10.06;100.00;102411.25;5069650;28;20053;-84
2022/05/08 03:45:13;;;;;;;13.80;2.50;;;;;;;9.96;100.00;102366.84;5052526;28;20127;-84
2022/05/08 03:47:40;;;;;;;13.40;2.80;;;;;;;10.08;100.00;102403.38;5052520;28;20057;-84
2022/05/08 03:50:07;;;;;;;15.27;3.83;;;;;;;9.74;100.00;102353.97;5060539;28;20040;-84
2022/05/08 03:52:34;;;;;;;11.45;2.70;;;;;;;10.03;100.00;102371.16;5072371;28;20060;-84
2022/05/08 03:55:02;;;;;;;13.38;3.25;;;;;;;9.88;100.00;102380.88;5072553;28;20049;-83
2022/05/08 03:57:29;;;;;;;16.42;2.88;;;;;;;10.24;100.00;102404.09;5073046;28;20067;-84
2022/05/08 03:59:56;;;;;;;12.23;3.08;;;;;;;10.12;100.00;102399.84;5072102;28;20478;-84
2022/05/08 04:02:23;;;;;;;19.80;2.97;;;;;;;10.03;100.00;102351.06;5071170;28;20076;-83
2022/05/08 04:04:50;;;;;;;9.45;2.20;;;;;;;10.13;100.00;102375.41;5059707;28;20099;-84
2022/05/08 04:07:17;;;;;;;8.02;1.95;;;;;;;10.19;100.00;102375.34;5085232;28;20052;-83
2022/05/08 04:09:44;;;;;;;11.50;2.50;;;;;;;10.29;100.00;102377.88;5052052;28;20152;-84
2022/05/08 04:12:10;;;;;;;14.75;3.15;;;;;;;10.15;100.00;102375.41;5070387;28;20533;-84
2022/05/08 04:14:37;;;;;;;8.45;2.35;;;;;;;10.15;100.00;102368.41;5071012;28;20048;-84
2022/05/08 04:17:04;;;;;;;20.52;3.88;;;;;;;10.24;100.00;102378.78;5072127;28;20131;-83
2022/05/08 04:19:31;;;;;;;17.02;3.42;;;;;;;10.22;100.00;102382.31;5064004;28;20053;-84
2022/05/08 04:24:43;;;;;;;13.55;2.65;;;;;;;10.26;100.00;102384.88;5070261;28;20375;-83
2022/05/08 04:27:10;;;;;;;15.30;3.20;;;;;;;10.02;100.00;102379.88;5073140;28;20055;-84
2022/05/08 04:29:37;;;;;;;19.33;3.67;;;;;;;10.13;100.00;102421.63;5072127;28;20044;-84
2022/05/08 04:32:04;;;;;;;17.15;4.38;;;;;;;9.91;100.00;102400.91;5071244;28;20048;-85
2022/05/08 04:34:31;;;;;;;8.65;2.80;;;;;;;9.78;100.00;102354.81;5072794;28;20086;-84
2022/05/08 04:36:58;;;;;;;15.15;3.53;;;;;;;9.66;100.00;102374.94;5072687;28;20058;-83
2022/05/08 04:39:25;;;;;;;16.25;3.78;;;;;;;9.87;100.00;102401.81;5072743;28;20060;-83
2022/05/08 04:41:52;;;;;;;12.95;3.70;;;;;;;10.07;100.00;102406.88;5071329;28;20376;-84
2022/05/08 04:44:19;;;;;;;18.15;3.20;;;;;;;9.84;100.00;102339.03;5072535;28;20047;-84
2022/05/08 04:46:46;;;;;;;18.83;4.63;;;;;;;9.88;100.00;102380.88;5072812;28;20505;-84
2022/05/08 04:49:12;;;;;;;15.73;3.72;;;;;;;10.13;100.00;102358.81;5072556;28;20060;-83
2022/05/08 04:51:39;;;;;;;19.05;3.60;;;;;;;10.37;100.00;102418.84;5071666;28;20059;-84
2022/05/08 04:54:06;;;;;;;15.05;3.55;;;;;;;10.12;100.00;102365.81;5071269;28;20063;-84
2022/05/08 04:56:33;;;;;;;13.52;3.55;;;;;;;9.99;100.00;102364.22;5071551;28;20498;-84
2022/05/08 04:59:00;;;;;;;17.92;3.33;;;;;;;10.35;100.00;102393.56;5070861;28;20110;-84
2022/05/08 05:01:27;;;;;;;15.88;4.10;;;;;;;10.42;100.00;102401.31;5071867;28;20048;-84
2022/05/08 05:03:54;;;;;;;17.23;4.00;;;;;;;10.55;100.00;102420.44;5071692;28;20064;-84
2022/05/08 05:06:24;;;;;;;16.15;3.33;;;;;;;10.20;100.00;102399.78;5071526;28;20044;-85
2022/05/08 05:08:51;;;;;;;14.30;3.70;;;;;;;10.58;100.00;102388.06;5071221;28;20088;-84
2022/05/08 05:11:19;;;;;;;18.25;3.92;;;;;;;10.55;100.00;102399.47;5072193;28;20048;-84
2022/05/08 05:13:46;;;;;;;19.05;3.80;;;;;;;10.78;100.00;102407.06;5070800;28;20045;-84
2022/05/08 05:16:12;;;;;;;17.20;5.03;;;;;;;10.30;100.00;102379.63;5070897;28;20044;-84
2022/05/08 05:18:39;;;;;;;15.15;3.35;;;;;;;10.71;100.00;102399.28;5053218;28;20056;-84
2022/05/08 05:21:06;;;;;;;18.25;4.15;;;;;;;10.70;100.00;102406.28;5058006;28;20040;-84
2022/05/08 05:23:35;;;;;;;23.23;3.90;;;;;;;10.86;100.00;102396.47;5072288;28;20059;-84
2022/05/08 05:26:03;;;;;;;15.95;3.65;;;;;;;10.85;100.00;102405.22;5070551;28;20052;-85
2022/05/08 05:28:31;;;;;;;28.23;4.82;;;;;;;10.66;100.00;102374.88;5069884;28;20068;-85
2022/05/08 05:30:59;;;;;;;16.17;3.50;;;;;;;10.77;100.00;102347.69;5053782;28;20045;-85
2022/05/08 05:33:26;;;;;;;16.23;4.13;;;;;;;11.15;100.00;102390.00;5057367;28;20118;-85
2022/05/08 05:35:53;;;;;;;22.20;5.10;;;;;;;11.07;100.00;102391.88;5055798;28;20091;-85
2022/05/08 05:38:19;;;;;;;19.20;3.58;;;;;;;11.27;100.00;102402.94;5064871;28;20055;-84
2022/05/08 05:40:46;;;;;;;15.45;5.20;;;;;;;10.85;100.00;102358.06;5070197;28;20048;-85
2022/05/08 05:43:13;;;;;;;17.88;3.45;;;;;;;10.94;100.00;102384.16;5062790;28;20047;-84
2022/05/08 05:45:40;;;;;;;23.33;4.63;;;;;;;11.23;100.00;102398.63;5069878;28;20052;-84
2022/05/08 05:48:07;;;;;;;22.02;4.90;;;;;;;11.16;100.00;102421.44;5070210;28;20071;-84
2022/05/08 05:50:34;;;;;;;21.17;4.13;;;;;;;11.15;100.00;102390.84;5063900;28;20438;-84
2022/05/08 05:53:01;;;;;;;18.85;3.53;;;;;;;11.24;100.00;102413.44;5064686;28;20123;-86
2022/05/08 05:55:28;;;;;;;28.52;5.05;;;;;;;11.20;100.00;102407.38;5062436;28;20041;-85
2022/05/08 05:57:55;;;;;;;28.67;5.35;;;;;;;11.26;100.00;102422.19;5059442;28;20053;-83
2022/05/08 06:00:22;;;;;;;28.48;5.30;;;;;;;10.88;100.00;102414.81;5066709;28;20473;-85
2022/05/08 06:02:49;;;;;;;21.45;4.05;;;;;;;11.39;100.00;102421.13;5070008;28;20055;-85
2022/05/08 06:05:16;;;;;;;25.17;5.10;;;;;;;11.23;100.00;102421.38;5071308;28;20055;-85
2022/05/08 06:07:43;;;;;;;23.33;4.70;;;;;;;11.05;100.00;102389.25;5059995;28;20129;-84
2022/05/08 06:10:11;;;;;;;32.22;6.55;;;;;;;10.93;100.00;102411.25;5063311;28;20052;-85
2022/05/08 06:12:38;;;;;;;23.80;3.90;;;;;;;11.48;100.00;102386.03;5091267;28;20070;-85
2022/05/08 06:15:08;;;;;;;27.98;4.78;;;;;;;11.46;100.00;102398.31;5066665;28;20128;-85
2022/05/08 06:17:36;;;;;;;19.40;4.38;;;;;;;11.77;100.00;102400.44;5069985;28;20060;-85
2022/05/08 06:20:03;;;;;;;20.92;4.25;;;;;;;11.50;100.00;102420.09;5067596;28;20051;-85
2022/05/08 06:22:32;;;;;;;21.92;5.30;;;;;;;11.35;100.00;102402.81;5069185;28;20417;-86
2022/05/08 06:24:59;;;;;;;19.98;4.45;;;;;;;11.40;100.00;102391.41;5064672;28;20044;-84
2022/05/08 06:27:26;;;;;;;24.45;5.15;;;;;;;11.73;100.00;102409.25;5064946;28;20118;-85
2022/05/08 06:29:53;;;;;;;23.38;3.97;;;;;;;11.96;100.00;102390.53;5069290;28;20049;-85
2022/05/08 06:32:21;;;;;;;22.02;4.47;;;;;;;11.70;100.00;102368.16;5067661;28;20074;-86
2022/05/08 06:34:48;;;;;;;34.28;6.55;;;;;;;11.36;100.00;102362.59;5069575;28;20123;-83
2022/05/08 06:37:15;;;;;;;25.33;6.15;;;;;;;11.52;100.00;102364.09;5070459;28;20056;-83
2022/05/08 06:39:42;;;;;;;31.20;6.57;;;;;;;11.75;100.00;102408.31;5068444;28;20490;-84
2022/05/08 06:42:09;;;;;;;23.65;4.47;;;;;;;12.00;100.00;102391.34;5065904;28;20044;-83
2022/05/08 06:44:36;;;;;;;22.15;4.15;;;;;;;11.83;100.00;102366.25;5058503;28;20053;-83
2022/05/08 06:47:04;;;;;;;17.27;3.53;;;;;;;12.42;100.00;102418.59;5050035;28;20139;-84
2022/05/08 06:49:31;;;;;;;24.45;5.30;;;;;;;12.12;100.00;102399.03;5064017;28;20099;-84
2022/05/08 06:51:58;;;;;;;22.20;4.53;;;;;;;12.40;100.00;102414.28;5068310;28;20056;-84
2022/05/08 06:54:26;;;;;;;19.52;5.28;;;;;;;11.98;100.00;102385.28;5062387;28;20052;-84
2022/05/08 06:56:55;;;;;;;23.27;4.40;;;;;;;12.16;100.00;102361.31;5058021;28;20051;-84
2022/05/08 07:02:09;;;;;;;23.90;4.78;;;;;;;12.43;100.00;102395.81;5068804;28;20048;-84
2022/05/08 07:04:35;;;;;;;21.73;4.22;;;;;;;12.48;100.00;102410.63;5064782;28;20059;-84
2022/05/08 07:07:02;;;;;;;23.08;5.22;;;;;;;12.62;100.00;102388.47;5048921;28;20049;-84
2022/05/08 07:09:34;;;;;;;19.10;4.22;;;;;;;12.85;100.00;102401.13;5065752;28;20053;-83
2022/05/08 07:12:01;;;;;;;28.35;5.00;;;;;;;12.58;100.00;102394.69;5068953;28;20048;-83
2022/05/08 07:14:28;;;;;;;19.38;4.40;;;;;;;12.83;100.00;102382.75;5066084;28;20790;-83
2022/05/08 07:16:55;;;;;;;21.70;4.38;;;;;;;13.09;100.00;102379.59;5073946;28;20115;-83
2022/05/08 07:19:22;;;;;;;22.30;4.50;;;;;;;13.17;100.00;102392.56;5067704;28;20056;-84
2022/05/08 07:21:48;;;;;;;17.40;4.20;;;;;;;13.03;100.00;102384.09;5072435;28;20056;-82
2022/05/08 07:24:20;;;;;;;18.13;4.47;;;;;;;13.01;100.00;102393.78;5072350;28;20056;-83
2022/05/08 07:26:50;;;;;;;26.88;4.72;;;;;;;12.54;100.00;102400.00;5072722;28;20052;-84
2022/05/08 07:29:29;;;;;;;27.40;4.75;;;;;;;12.86;100.00;102405.50;5070331;28;20060;-84
2022/05/08 07:31:55;;;;;;;16.90;4.03;;;;;;;12.77;100.00;102395.19;5068121;28;20054;-84
2022/05/08 07:37:10;;;;;;;24.13;5.07;;;;;;;13.11;100.00;102398.81;5063610;28;20040;-82
2022/05/08 07:39:39;;;;;;;19.23;4.13;;;;;;;12.73;100.00;102399.66;5069140;28;20051;-84
2022/05/08 07:42:06;;;;;;;20.15;4.18;;;;;;;12.42;100.00;102407.25;5069247;28;20087;-83
2022/05/08 07:44:35;;;;;;;25.85;5.70;;;;;;;12.21;100.00;102392.75;5071327;28;20048;-82
2022/05/08 07:47:03;;;;;;;23.30;4.70;;;;;;;12.90;100.00;102404.53;5066715;28;20047;-83
2022/05/08 07:49:30;;;;;;;20.98;4.40;;;;;;;12.90;100.00;102394.88;5067584;28;20059;-84
2022/05/08 07:51:57;;;;;;;24.60;5.65;;;;;;;12.71;100.00;102402.31;5060503;28;20072;-83
2022/05/08 07:54:23;;;;;;;19.98;4.63;;;;;;;12.88;100.00;102387.94;5073207;28;20059;-83
2022/05/08 07:56:50;;;;;;;31.67;6.05;;;;;;;12.70;100.00;102387.41;5065917;28;20055;-83
2022/05/08 07:59:17;;;;;;;35.50;5.75;;;;;;;12.68;100.00;102386.59;5067361;28;20052;-84
2022/05/08 08:01:44;;;;;;;23.10;4.68;;;;;;;12.58;100.00;102385.03;5065745;28;20059;-84
2022/05/08 08:04:18;;;;;;;30.20;4.95;;;;;;;12.96;100.00;102399.16;5072329;28;20080;-82
2022/05/08 08:06:52;;;;;;;23.98;5.53;;;;;;;13.42;100.00;102384.16;5071351;28;20052;-84
2022/05/08 08:09:20;;;;;;;26.30;4.95;;;;;;;13.80;100.00;102385.88;5072235;28;20083;-83
2022/05/08 08:11:47;;;;;;;19.63;4.28;;;;;;;13.80;100.00;102387.63;5071125;28;20394;-83
2022/05/08 08:14:14;;;;;;;26.48;5.45;;;;;;;13.85;100.00;102386.63;5070764;28;20441;-83
2022/05/08 08:17:01;;;;;;;27.83;6.20;;;;;;;13.82;100.00;102388.47;5051365;28;20399;-83
2022/05/08 08:19:30;;;;;;;20.17;4.47;;;;;;;13.97;100.00;102382.81;5053218;28;20045;-83
2022/05/08 08:21:59;;;;;;;21.02;4.72;;;;;;;13.75;100.00;102393.00;5071377;28;20076;-83
2022/05/08 08:24:29;;;;;;;19.35;4.63;;;;;;;14.12;100.00;102392.06;5068373;28;20059;-83
2022/05/08 08:26:56;;;;;;;13.68;2.90;;;;;;;14.75;100.00;102371.06;5070118;28;20056;-81
2022/05/08 08:29:23;;;;;;;19.88;4.30;;;;;;;14.72;100.00;102372.03;5068770;28;20707;-83
2022/05/08 08:31:50;;;;;;;21.20;4.85;;;;;;;14.46;100.00;102382.41;5069489;28;20403;-83
2022/05/08 08:34:16;;;;;;;20.40;4.70;;;;;;;14.32;100.00;102364.34;5071323;28;20048;-83
2022/05/08 08:36:43;;;;;;;20.25;4.47;;;;;;;14.62;100.00;102362.66;5060282;28;20055;-84
2022/05/08 08:39:10;;;;;;;28.30;5.70;;;;;;;14.27;100.00;102363.59;5059992;28;20049;-84
2022/05/08 08:41:42;;;;;;;29.85;5.05;;;;;;;15.17;100.00;102360.13;5069871;28;20048;-82
2022/05/08 08:49:51;;;;;;;20.67;4.38;;;;;;;14.60;100.00;102361.84;5069162;28;20045;-83
2022/05/08 08:52:22;;;;;;;20.67;3.95;;;;;;;15.36;100.00;102363.91;5071520;28;20106;-83
2022/05/08 08:54:49;;;;;;;29.65;5.38;;;;;;;15.21;100.00;102367.06;5069893;28;20394;-83
2022/05/08 08:57:15;;;;;;;23.17;4.57;;;;;;;15.22;100.00;102352.09;5070355;28;20044;-83
2022/05/08 08:59:42;;;;;;;23.83;5.65;;;;;;;14.53;100.00;102368.16;5066010;28;20055;-83
2022/05/08 09:02:17;;;;;;;22.23;4.80;;;;;;;14.66;100.00;102351.13;5066932;28;20056;-83
2022/05/08 09:04:49;;;;;;;18.35;4.95;;;;;;;14.77;100.00;102342.91;5061618;28;20130;-83
2022/05/08 09:07:34;;;;;;;22.20;5.43;;;;;;;14.71;100.00;102372.06;5055801;28;20139;-83
2022/05/08 09:10:11;;;;;;;25.38;4.45;;;;;;;14.47;100.00;102357.81;5062362;28;20048;-83
2022/05/08 09:12:39;;;;;;;27.23;4.95;;;;;;;14.70;100.00;102360.66;5062104;28;20048;-83
2022/05/08 09:15:21;;;;;;;22.58;5.40;;;;;;;14.43;100.00;102367.56;5053296;28;20057;-83
2022/05/08 09:17:50;;;;;;;20.25;4.57;;;;;;;14.74;100.00;102367.56;5056497;28;20491;-84
2022/05/08 09:20:34;;;;;;;20.98;5.05;;;;;;;14.92;100.00;102362.66;5068906;28;20139;-83
2022/05/08 09:23:15;;;;;;;19.90;4.63;;;;;;;15.43;100.00;102321.50;5067306;28;20058;-83
2022/05/08 09:25:49;;;;;;;29.17;6.47;;;;;;;14.97;100.00;102361.59;5061240;28;20055;-83
2022/05/08 09:28:41;;;;;;;28.60;5.38;;;;;;;15.69;100.00;102349.69;5059671;28;20049;-83
2022/05/08 09:31:16;;;;;;;27.77;5.95;;;;;;;15.54;100.00;102365.09;5061431;28;20052;-84
2022/05/08 09:33:47;;;;;;;21.83;5.45;;;;;;;16.66;100.00;102355.09;5061066;28;20447;-84
2022/05/08 09:36:18;;;;;;;18.83;4.57;;;;;;;16.24;100.00;102326.66;5061392;28;20041;-85
2022/05/08 09:38:59;;;;;;;23.80;5.35;;;;;;;15.40;100.00;102334.78;5050682;28;20053;-84
2022/05/08 09:41:30;;;;;;;26.92;5.85;;;;;;;15.88;100.00;102358.75;5056548;28;20059;-84
2022/05/08 09:44:11;;;;;;;27.85;5.20;;;;;;;15.18;100.00;102367.16;5058564;28;20048;-84
2022/05/08 09:46:39;;;;;;;18.05;4.55;;;;;;;15.59;100.00;102354.41;5062171;28;20553;-84
2022/05/08 09:49:07;;;;;;;18.58;4.05;;;;;;;15.89;100.00;102356.97;5058058;28;20127;-84
2022/05/08 09:51:35;;;;;;;17.80;5.00;;;;;;;15.70;100.00;102361.97;5098691;28;20059;-84
2022/05/08 09:54:05;;;;;;;19.48;5.03;;;;;;;15.56;100.00;102351.84;5069773;28;20056;-83
2022/05/08 09:56:31;;;;;;;26.55;5.57;;;;;;;15.04;100.00;102361.44;5069059;28;20047;-84
2022/05/08 09:58:58;;;;;;;21.05;4.72;;;;;;;15.23;100.00;102352.03;5070574;28;20052;-84
2022/05/08 10:01:25;;;;;;;21.00;4.63;;;;;;;15.73;100.00;102348.66;5069387;28;20056;-83
2022/05/08 10:03:53;;;;;;;21.27;4.75;;;;;;;15.66;100.00;102320.75;5069866;28;20678;-84
2022/05/08 10:06:20;;;;;;;20.75;4.88;;;;;;;16.02;100.00;102329.19;5060231;28;20047;-84
2022/05/08 10:08:48;;;;;;;22.98;5.65;;;;;;;15.50;100.00;102323.88;5066794;28;20037;-83
2022/05/08 10:14:11;;;;;;;21.65;5.68;;;;;;;15.71;100.00;102337.28;5070474;28;20534;-84
2022/05/08 10:17:04;;;;;;;25.55;5.28;;;;;;;15.38;100.00;102327.78;5069625;28;20106;-83
2022/05/08 10:19:31;;;;;;;18.80;4.65;;;;;;;15.25;100.00;102346.72;5069382;28;20055;-84
2022/05/08 10:22:05;;;;;;;22.65;5.15;;;;;;;15.70;100.00;102340.84;5069326;28;20053;-84
2022/05/08 10:24:33;;;;;;;26.40;5.60;;;;;;;14.78;100.00;102334.06;5069766;28;20128;-84
2022/05/08 10:27:25;;;;;;;24.77;4.93;;;;;;;15.39;100.00;102344.50;5069543;28;20045;-83
2022/05/08 10:29:52;;;;;;;20.05;4.50;;;;;;;15.85;100.00;102335.06;5071053;28;20498;-84
2022/05/08 10:32:52;;;;;;;20.27;4.70;;;;;;;15.88;100.00;102348.19;5068918;28;20056;-83
2022/05/08 10:35:25;;;;;;;19.65;4.32;;;;;;;15.80;100.00;102336.16;5050616;28;20060;-84
2022/05/08 10:37:52;;;;;;;;;;;;;;;15.23;100.00;102325.66;5057637;28;20110;-84
2022/05/08 10:40:22;;;;;;;17.85;4.50;;;;;;;15.35;100.00;102338.47;5051387;28;19921;-84
2022/05/08 10:43:01;;;;;;;15.50;4.35;;;;;;;15.60;100.00;102305.09;5069900;28;20087;-83
2022/05/08 10:45:31;;;;;;;23.55;4.43;;;;;;;15.94;100.00;102339.19;5070729;28;20111;-85
2022/05/08 10:48:01;;;;;;;24.20;4.63;;;;;;;16.37;100.00;102334.16;5067478;28;20051;-84
2022/05/08 10:50:31;;;;;;;21.27;5.13;;;;;;;16.08;100.00;102321.06;5070801;28;20178;-85
2022/05/08 10:52:58;;;;;;;18.13;4.82;;;;;;;15.50;100.00;102318.59;5074306;28;20413;-84
2022/05/08 10:55:27;;;;;;;21.58;5.63;;;;;;;16.05;100.00;102313.25;5071447;28;20091;-84
2022/05/08 10:57:54;;;;;;;24.13;4.80;;;;;;;16.20;100.00;102321.53;5067197;28;20810;-84
2022/05/08 11:00:22;;;;;;;22.10;5.03;;;;;;;16.35;100.00;102328.91;5062247;28;20058;-84
2022/05/08 11:02:52;;;;;;;21.58;4.97;;;;;;;15.55;100.00;102347.50;5061762;28;20057;-84
2022/05/08 11:05:21;;;;;;;14.40;3.90;;;;;;;16.62;100.00;102332.31;5088373;28;20128;-84
2022/05/08 11:07:51;;;;;;;16.98;3.90;;;;;;;16.73;97.31;102333.69;5053295;28;20049;-84
2022/05/08 11:10:22;;;;;;;19.88;4.20;;;;;;;17.03;95.42;102332.56;5057591;28;20045;-84
2022/05/08 11:13:02;;;;;;;24.88;5.22;;;;;;;17.00;95.43;102335.31;5056145;28;20057;-84
2022/05/08 11:15:34;;;;;;;18.67;4.47;;;;;;;16.86;96.63;102325.25;5061227;28;20053;-83
2022/05/08 11:18:15;;;;;;;21.30;3.95;;;;;;;16.92;96.37;102318.00;5072954;28;20068;-84
2022/05/08 11:20:48;;;;;;;20.13;4.30;;;;;;;16.96;95.08;102323.09;5056098;28;20048;-84
2022/05/08 11:23:17;;;;;;;20.48;5.68;;;;;;;16.37;97.19;102287.41;5072858;28;20125;-85
2022/05/08 11:25:55;;;;;;;23.17;4.82;;;;;;;16.64;99.86;102330.50;5072856;28;20398;-84
2022/05/08 11:28:24;;;;;;;21.95;4.32;;;;;;;17.03;99.61;102332.56;5075200;28;20056;-84
2022/05/08 11:30:52;;;;;;;14.48;4.10;;;;;;;16.66;100.00;102311.88;5072816;28;20052;-85
2022/05/08 11:36:28;;;;;;;23.27;5.32;;;;;;;15.40;100.00;102295.22;5060042;28;20376;-87
2022/05/08 11:39:03;;;;;;;25.10;6.72;;;;;;;15.54;100.00;102336.06;5060612;28;20048;-87
2022/05/08 11:41:44;;;;;;;16.38;3.53;;;;;;;16.48;100.00;102311.69;5071946;28;20052;-87
2022/05/08 11:44:14;;;;;;;17.58;3.53;;;;;;;17.08;100.00;102321.75;5073105;28;20074;-87
2022/05/08 11:46:46;;;;;;;18.75;4.60;;;;;;;16.37;100.00;102308.56;5072713;28;20044;-88